sensor_id;sensor_type;location;lat;lon;timestamp;temperature;humidity
46231;DHT22;31949;51.404;-0.038;2023-04-19T00:01:01;9.50;99.90
46231;DHT22;31949;51.404;-0.038;2023-04-19T00:03:29;9.50;99.90
46231;DHT22;31949;51.404;-0.038;2023-04-19T00:05:57;9.40;99.90
46231;DHT22;31949;51.404;-0.038;2023-04-19T00:08:25;9.40;99.90
46231;DHT22;31949;51.404;-0.038;2023-04-19T00:10:52;9.40;99.90
46231;DHT22;31949;51.404;-0.038;2023-04-19T00:13:19;9.40;99.90
46231;DHT22;31949;51.404;-0.038;2023-04-19T00:15:47;9.40;99.90
46231;DHT22;31949;51.404;-0.038;2023-04-19T00:18:15;9.30;99.90
46231;DHT22;31949;51.404;-0.038;2023-04-19T00:20:42;9.40;99.90
46231;DHT22;31949;51.404;-0.038;2023-04-19T00:23:09;9.30;99.90
46231;DHT22;31949;51.404;-0.038;2023-04-19T00:25:36;9.30;99.90
46231;DHT22;31949;51.404;-0.038;2023-04-19T00:28:03;9.30;99.90
46231;DHT22;31949;51.404;-0.038;2023-04-19T00:30:31;9.30;99.90
46231;DHT22;31949;51.404;-0.038;2023-04-19T00:32:58;9.30;99.90
46231;DHT22;31949;51.404;-0.038;2023-04-19T00:35:25;9.30;99.90
46231;DHT22;31949;51.404;-0.038;2023-04-19T00:37:52;9.20;99.90
46231;DHT22;31949;51.404;-0.038;2023-04-19T00:40:19;9.20;99.90
46231;DHT22;31949;51.404;-0.038;2023-04-19T00:42:47;9.20;99.90
46231;DHT22;31949;51.404;-0.038;2023-04-19T00:45:14;9.20;99.90
46231;DHT22;31949;51.404;-0.038;2023-04-19T00:47:41;9.20;99.90
46231;DHT22;31949;51.404;-0.038;2023-04-19T00:50:09;9.10;99.90
46231;DHT22;31949;51.404;-0.038;2023-04-19T00:52:40;9.10;99.90
46231;DHT22;31949;51.404;-0.038;2023-04-19T00:55:08;9.10;99.90
46231;DHT22;31949;51.404;-0.038;2023-04-19T00:57:36;9.10;99.90
46231;DHT22;31949;51.404;-0.038;2023-04-19T01:00:04;9.10;99.90
46231;DHT22;31949;51.404;-0.038;2023-04-19T01:02:35;9.00;99.90
46231;DHT22;31949;51.404;-0.038;2023-04-19T01:05:03;9.00;99.90
46231;DHT22;31949;51.404;-0.038;2023-04-19T01:07:34;9.00;99.90
46231;DHT22;31949;51.404;-0.038;2023-04-19T01:10:01;9.00;99.90
46231;DHT22;31949;51.404;-0.038;2023-04-19T01:12:29;9.00;99.90
46231;DHT22;31949;51.404;-0.038;2023-04-19T01:14:56;8.90;99.90
46231;DHT22;31949;51.404;-0.038;2023-04-19T01:17:25;9.00;99.90
46231;DHT22;31949;51.404;-0.038;2023-04-19T01:20:03;8.90;99.90
46231;DHT22;31949;51.404;-0.038;2023-04-19T01:22:35;8.90;99.90
46231;DHT22;31949;51.404;-0.038;2023-04-19T01:25:05;8.90;99.90
46231;DHT22;31949;51.404;-0.038;2023-04-19T01:27:33;8.90;99.90
46231;DHT22;31949;51.404;-0.038;2023-04-19T01:30:01;8.90;99.90
46231;DHT22;31949;51.404;-0.038;2023-04-19T01:32:28;8.90;99.90
46231;DHT22;31949;51.404;-0.038;2023-04-19T01:34:55;8.80;99.90
46231;DHT22;31949;51.404;-0.038;2023-04-19T01:37:23;8.80;99.90
46231;DHT22;31949;51.404;-0.038;2023-04-19T01:39:52;8.80;99.90
46231;DHT22;31949;51.404;-0.038;2023-04-19T01:42:20;8.80;99.90
46231;DHT22;31949;51.404;-0.038;2023-04-19T01:44:47;8.80;99.90
46231;DHT22;31949;51.404;-0.038;2023-04-19T01:47:14;8.80;99.90
46231;DHT22;31949;51.404;-0.038;2023-04-19T01:49:41;8.70;99.90
46231;DHT22;31949;51.404;-0.038;2023-04-19T01:52:08;8.70;99.90
46231;DHT22;31949;51.404;-0.038;2023-04-19T01:54:36;8.70;99.90
46231;DHT22;31949;51.404;-0.038;2023-04-19T01:57:03;8.70;99.90
46231;DHT22;31949;51.404;-0.038;2023-04-19T01:59:30;8.70;99.90
46231;DHT22;31949;51.404;-0.038;2023-04-19T02:01:57;8.70;99.90
46231;DHT22;31949;51.404;-0.038;2023-04-19T02:04:25;8.70;99.90
46231;DHT22;31949;51.404;-0.038;2023-04-19T02:06:52;8.70;99.90
46231;DHT22;31949;51.404;-0.038;2023-04-19T02:09:19;8.60;99.90
46231;DHT22;31949;51.404;-0.038;2023-04-19T02:11:46;8.60;99.90
46231;DHT22;31949;51.404;-0.038;2023-04-19T02:14:14;8.60;99.90
46231;DHT22;31949;51.404;-0.038;2023-04-19T02:16:42;8.70;99.90
46231;DHT22;31949;51.404;-0.038;2023-04-19T02:19:09;8.70;99.90
46231;DHT22;31949;51.404;-0.038;2023-04-19T02:21:37;8.70;99.90
46231;DHT22;31949;51.404;-0.038;2023-04-19T02:24:05;8.60;99.90
46231;DHT22;31949;51.404;-0.038;2023-04-19T02:26:32;8.60;99.90
46231;DHT22;31949;51.404;-0.038;2023-04-19T02:28:59;8.60;99.90
46231;DHT22;31949;51.404;-0.038;2023-04-19T02:31:27;8.60;99.90
46231;DHT22;31949;51.404;-0.038;2023-04-19T02:33:54;8.60;99.90
46231;DHT22;31949;51.404;-0.038;2023-04-19T02:36:21;8.60;99.90
46231;DHT22;31949;51.404;-0.038;2023-04-19T02:38:48;8.60;99.90
46231;DHT22;31949;51.404;-0.038;2023-04-19T02:41:16;8.70;99.90
46231;DHT22;31949;51.404;-0.038;2023-04-19T02:43:43;8.70;99.90
46231;DHT22;31949;51.404;-0.038;2023-04-19T02:46:12;8.70;99.90
46231;DHT22;31949;51.404;-0.038;2023-04-19T02:48:39;8.70;99.90
46231;DHT22;31949;51.404;-0.038;2023-04-19T02:51:06;8.80;99.90
46231;DHT22;31949;51.404;-0.038;2023-04-19T02:53:35;8.80;99.90
46231;DHT22;31949;51.404;-0.038;2023-04-19T02:56:03;8.80;99.90
46231;DHT22;31949;51.404;-0.038;2023-04-19T02:58:30;8.80;99.90
46231;DHT22;31949;51.404;-0.038;2023-04-19T03:01:02;8.80;99.90
46231;DHT22;31949;51.404;-0.038;2023-04-19T03:03:30;8.80;99.90
46231;DHT22;31949;51.404;-0.038;2023-04-19T03:05:57;8.80;99.90
46231;DHT22;31949;51.404;-0.038;2023-04-19T03:08:24;8.80;99.90
46231;DHT22;31949;51.404;-0.038;2023-04-19T03:10:52;8.70;99.90
46231;DHT22;31949;51.404;-0.038;2023-04-19T03:13:19;8.70;99.90
46231;DHT22;31949;51.404;-0.038;2023-04-19T03:15:46;8.70;99.90
46231;DHT22;31949;51.404;-0.038;2023-04-19T03:18:15;8.70;99.90
46231;DHT22;31949;51.404;-0.038;2023-04-19T03:20:43;8.70;99.90
46231;DHT22;31949;51.404;-0.038;2023-04-19T03:23:10;8.70;99.90
46231;DHT22;31949;51.404;-0.038;2023-04-19T03:25:38;8.70;99.90
46231;DHT22;31949;51.404;-0.038;2023-04-19T03:28:23;8.70;99.90
46231;DHT22;31949;51.404;-0.038;2023-04-19T03:31:15;8.70;99.90
46231;DHT22;31949;51.404;-0.038;2023-04-19T03:33:43;8.70;99.90
46231;DHT22;31949;51.404;-0.038;2023-04-19T03:36:12;8.70;99.90
46231;DHT22;31949;51.404;-0.038;2023-04-19T03:38:42;8.70;99.90
46231;DHT22;31949;51.404;-0.038;2023-04-19T03:41:23;8.60;99.90
46231;DHT22;31949;51.404;-0.038;2023-04-19T03:44:10;8.60;99.90
46231;DHT22;31949;51.404;-0.038;2023-04-19T03:46:41;8.60;99.90
46231;DHT22;31949;51.404;-0.038;2023-04-19T03:49:09;8.60;99.90
46231;DHT22;31949;51.404;-0.038;2023-04-19T03:51:37;8.50;99.90
46231;DHT22;31949;51.404;-0.038;2023-04-19T03:54:05;8.50;99.90
46231;DHT22;31949;51.404;-0.038;2023-04-19T03:56:33;8.50;99.90
46231;DHT22;31949;51.404;-0.038;2023-04-19T03:59:00;8.50;99.90
46231;DHT22;31949;51.404;-0.038;2023-04-19T04:01:29;8.50;99.90
46231;DHT22;31949;51.404;-0.038;2023-04-19T04:03:56;8.40;99.90
46231;DHT22;31949;51.404;-0.038;2023-04-19T04:06:25;8.40;99.90
46231;DHT22;31949;51.404;-0.038;2023-04-19T04:08:52;8.40;99.90
46231;DHT22;31949;51.404;-0.038;2023-04-19T04:11:19;8.40;99.90
46231;DHT22;31949;51.404;-0.038;2023-04-19T04:13:48;8.40;99.90
46231;DHT22;31949;51.404;-0.038;2023-04-19T04:16:20;8.40;99.90
46231;DHT22;31949;51.404;-0.038;2023-04-19T04:18:49;8.40;99.90
46231;DHT22;31949;51.404;-0.038;2023-04-19T04:21:16;8.40;99.90
46231;DHT22;31949;51.404;-0.038;2023-04-19T04:23:46;8.40;99.90
46231;DHT22;31949;51.404;-0.038;2023-04-19T04:26:35;8.40;99.90
46231;DHT22;31949;51.404;-0.038;2023-04-19T04:29:27;8.40;99.90
46231;DHT22;31949;51.404;-0.038;2023-04-19T04:31:58;8.30;99.90
46231;DHT22;31949;51.404;-0.038;2023-04-19T04:34:30;8.30;99.90
46231;DHT22;31949;51.404;-0.038;2023-04-19T04:37:06;8.30;99.90
46231;DHT22;31949;51.404;-0.038;2023-04-19T04:39:36;8.30;99.90
46231;DHT22;31949;51.404;-0.038;2023-04-19T04:42:07;8.30;99.90
46231;DHT22;31949;51.404;-0.038;2023-04-19T04:44:38;8.30;99.90
46231;DHT22;31949;51.404;-0.038;2023-04-19T04:47:11;8.30;99.90
46231;DHT22;31949;51.404;-0.038;2023-04-19T04:49:45;8.30;99.90
46231;DHT22;31949;51.404;-0.038;2023-04-19T04:52:12;8.30;99.90
46231;DHT22;31949;51.404;-0.038;2023-04-19T04:54:52;8.30;99.90
46231;DHT22;31949;51.404;-0.038;2023-04-19T04:57:26;8.30;99.90
46231;DHT22;31949;51.404;-0.038;2023-04-19T04:59:53;8.30;99.90
46231;DHT22;31949;51.404;-0.038;2023-04-19T05:02:24;8.30;99.90
46231;DHT22;31949;51.404;-0.038;2023-04-19T05:04:52;8.30;99.90
46231;DHT22;31949;51.404;-0.038;2023-04-19T05:07:20;8.30;99.90
46231;DHT22;31949;51.404;-0.038;2023-04-19T05:09:47;8.30;99.90
46231;DHT22;31949;51.404;-0.038;2023-04-19T05:12:19;8.30;99.90
46231;DHT22;31949;51.404;-0.038;2023-04-19T05:14:46;8.30;99.90
46231;DHT22;31949;51.404;-0.038;2023-04-19T05:17:13;8.30;99.90
46231;DHT22;31949;51.404;-0.038;2023-04-19T05:19:41;8.30;99.90
46231;DHT22;31949;51.404;-0.038;2023-04-19T05:22:09;8.30;99.90
46231;DHT22;31949;51.404;-0.038;2023-04-19T05:24:38;8.30;99.90
46231;DHT22;31949;51.404;-0.038;2023-04-19T05:27:08;8.20;99.90
46231;DHT22;31949;51.404;-0.038;2023-04-19T05:29:35;8.30;99.90
46231;DHT22;31949;51.404;-0.038;2023-04-19T05:32:03;8.30;99.90
46231;DHT22;31949;51.404;-0.038;2023-04-19T05:34:35;8.30;99.90
46231;DHT22;31949;51.404;-0.038;2023-04-19T05:37:04;8.40;99.90
46231;DHT22;31949;51.404;-0.038;2023-04-19T05:39:32;8.40;99.90
46231;DHT22;31949;51.404;-0.038;2023-04-19T05:41:59;8.40;99.90
46231;DHT22;31949;51.404;-0.038;2023-04-19T05:44:27;8.40;99.90
46231;DHT22;31949;51.404;-0.038;2023-04-19T05:46:54;8.50;99.90
46231;DHT22;31949;51.404;-0.038;2023-04-19T05:49:44;8.50;99.90
46231;DHT22;31949;51.404;-0.038;2023-04-19T05:52:18;8.50;99.90
46231;DHT22;31949;51.404;-0.038;2023-04-19T05:54:49;8.50;99.90
46231;DHT22;31949;51.404;-0.038;2023-04-19T05:57:17;8.60;99.90
46231;DHT22;31949;51.404;-0.038;2023-04-19T05:59:44;8.60;99.90
46231;DHT22;31949;51.404;-0.038;2023-04-19T06:02:14;8.60;99.90
46231;DHT22;31949;51.404;-0.038;2023-04-19T06:04:42;8.70;99.90
46231;DHT22;31949;51.404;-0.038;2023-04-19T06:07:10;8.70;99.90
46231;DHT22;31949;51.404;-0.038;2023-04-19T06:09:57;8.70;99.90
46231;DHT22;31949;51.404;-0.038;2023-04-19T06:12:25;8.80;99.90
46231;DHT22;31949;51.404;-0.038;2023-04-19T06:14:53;8.80;99.90
46231;DHT22;31949;51.404;-0.038;2023-04-19T06:17:20;8.90;99.90
46231;DHT22;31949;51.404;-0.038;2023-04-19T06:19:52;8.90;99.90
46231;DHT22;31949;51.404;-0.038;2023-04-19T06:22:20;9.00;99.90
46231;DHT22;31949;51.404;-0.038;2023-04-19T06:24:47;9.00;99.90
46231;DHT22;31949;51.404;-0.038;2023-04-19T06:27:15;9.10;99.90
46231;DHT22;31949;51.404;-0.038;2023-04-19T06:29:42;9.20;99.90
46231;DHT22;31949;51.404;-0.038;2023-04-19T06:32:10;9.20;99.90
46231;DHT22;31949;51.404;-0.038;2023-04-19T06:34:37;9.30;99.90
46231;DHT22;31949;51.404;-0.038;2023-04-19T06:37:04;9.40;99.90
46231;DHT22;31949;51.404;-0.038;2023-04-19T06:39:31;9.50;99.90
46231;DHT22;31949;51.404;-0.038;2023-04-19T06:41:59;9.60;99.90
46231;DHT22;31949;51.404;-0.038;2023-04-19T06:44:27;9.70;99.90
46231;DHT22;31949;51.404;-0.038;2023-04-19T06:46:55;9.90;99.90
46231;DHT22;31949;51.404;-0.038;2023-04-19T06:49:22;10.00;99.90
46231;DHT22;31949;51.404;-0.038;2023-04-19T06:51:49;10.10;99.90
46231;DHT22;31949;51.404;-0.038;2023-04-19T06:54:16;10.20;99.90
46231;DHT22;31949;51.404;-0.038;2023-04-19T06:56:46;10.30;99.90
46231;DHT22;31949;51.404;-0.038;2023-04-19T06:59:16;10.30;99.90
46231;DHT22;31949;51.404;-0.038;2023-04-19T07:01:44;10.30;99.90
46231;DHT22;31949;51.404;-0.038;2023-04-19T07:04:13;10.40;99.90
46231;DHT22;31949;51.404;-0.038;2023-04-19T07:06:41;10.40;99.90
46231;DHT22;31949;51.404;-0.038;2023-04-19T07:09:09;10.50;99.90
46231;DHT22;31949;51.404;-0.038;2023-04-19T07:11:37;10.50;99.90
46231;DHT22;31949;51.404;-0.038;2023-04-19T07:14:04;10.60;99.90
46231;DHT22;31949;51.404;-0.038;2023-04-19T07:16:32;10.50;99.90
46231;DHT22;31949;51.404;-0.038;2023-04-19T07:18:59;10.50;99.90
46231;DHT22;31949;51.404;-0.038;2023-04-19T07:21:30;10.60;99.90
46231;DHT22;31949;51.404;-0.038;2023-04-19T07:23:59;10.60;99.90
46231;DHT22;31949;51.404;-0.038;2023-04-19T07:26:28;10.60;99.90
46231;DHT22;31949;51.404;-0.038;2023-04-19T07:29:02;10.60;99.90
46231;DHT22;31949;51.404;-0.038;2023-04-19T07:31:29;10.70;99.90
46231;DHT22;31949;51.404;-0.038;2023-04-19T07:33:56;10.70;99.90
46231;DHT22;31949;51.404;-0.038;2023-04-19T07:36:24;10.70;99.90
46231;DHT22;31949;51.404;-0.038;2023-04-19T07:38:55;10.80;99.90
46231;DHT22;31949;51.404;-0.038;2023-04-19T07:41:23;10.90;99.90
46231;DHT22;31949;51.404;-0.038;2023-04-19T07:43:51;10.90;99.90
46231;DHT22;31949;51.404;-0.038;2023-04-19T07:46:18;11.00;99.90
46231;DHT22;31949;51.404;-0.038;2023-04-19T07:48:46;11.00;99.90
46231;DHT22;31949;51.404;-0.038;2023-04-19T07:51:15;11.10;99.90
46231;DHT22;31949;51.404;-0.038;2023-04-19T07:53:45;11.10;99.90
46231;DHT22;31949;51.404;-0.038;2023-04-19T07:56:13;11.10;99.90
46231;DHT22;31949;51.404;-0.038;2023-04-19T07:58:41;11.20;99.90
46231;DHT22;31949;51.404;-0.038;2023-04-19T08:01:11;11.40;99.90
46231;DHT22;31949;51.404;-0.038;2023-04-19T08:03:38;11.50;99.90
46231;DHT22;31949;51.404;-0.038;2023-04-19T08:06:06;11.60;99.90
46231;DHT22;31949;51.404;-0.038;2023-04-19T08:08:35;11.60;99.90
46231;DHT22;31949;51.404;-0.038;2023-04-19T08:11:04;11.70;99.90
46231;DHT22;31949;51.404;-0.038;2023-04-19T08:13:31;11.70;99.90
46231;DHT22;31949;51.404;-0.038;2023-04-19T08:15:59;11.80;99.90
46231;DHT22;31949;51.404;-0.038;2023-04-19T08:18:30;11.90;99.90
46231;DHT22;31949;51.404;-0.038;2023-04-19T08:21:01;11.90;99.90
46231;DHT22;31949;51.404;-0.038;2023-04-19T08:23:28;11.90;99.90
46231;DHT22;31949;51.404;-0.038;2023-04-19T08:26:13;11.80;99.90
46231;DHT22;31949;51.404;-0.038;2023-04-19T08:28:43;11.90;99.90
46231;DHT22;31949;51.404;-0.038;2023-04-19T08:31:10;11.80;99.90
46231;DHT22;31949;51.404;-0.038;2023-04-19T08:33:38;11.90;99.90
46231;DHT22;31949;51.404;-0.038;2023-04-19T08:36:07;11.90;99.90
46231;DHT22;31949;51.404;-0.038;2023-04-19T08:38:35;11.90;99.90
46231;DHT22;31949;51.404;-0.038;2023-04-19T08:41:05;11.90;99.90
46231;DHT22;31949;51.404;-0.038;2023-04-19T08:43:34;11.90;99.90
46231;DHT22;31949;51.404;-0.038;2023-04-19T08:46:04;12.00;99.90
46231;DHT22;31949;51.404;-0.038;2023-04-19T08:48:33;12.00;99.90
46231;DHT22;31949;51.404;-0.038;2023-04-19T08:51:05;12.20;99.90
46231;DHT22;31949;51.404;-0.038;2023-04-19T08:53:53;12.10;99.90
46231;DHT22;31949;51.404;-0.038;2023-04-19T08:56:24;12.20;99.90
46231;DHT22;31949;51.404;-0.038;2023-04-19T08:59:01;12.20;99.90
46231;DHT22;31949;51.404;-0.038;2023-04-19T09:01:44;12.30;99.90
46231;DHT22;31949;51.404;-0.038;2023-04-19T09:04:11;12.20;99.90
46231;DHT22;31949;51.404;-0.038;2023-04-19T09:06:41;12.30;99.90
46231;DHT22;31949;51.404;-0.038;2023-04-19T09:09:15;12.30;99.90
46231;DHT22;31949;51.404;-0.038;2023-04-19T09:11:48;12.40;99.90
46231;DHT22;31949;51.404;-0.038;2023-04-19T09:14:19;12.40;99.90
46231;DHT22;31949;51.404;-0.038;2023-04-19T09:16:53;12.40;99.90
46231;DHT22;31949;51.404;-0.038;2023-04-19T09:19:48;12.50;99.90
46231;DHT22;31949;51.404;-0.038;2023-04-19T09:22:16;12.50;99.90
46231;DHT22;31949;51.404;-0.038;2023-04-19T09:24:44;12.60;99.90
46231;DHT22;31949;51.404;-0.038;2023-04-19T09:27:34;12.60;99.90
46231;DHT22;31949;51.404;-0.038;2023-04-19T09:30:03;12.60;99.90
46231;DHT22;31949;51.404;-0.038;2023-04-19T09:32:45;12.70;99.90
46231;DHT22;31949;51.404;-0.038;2023-04-19T09:35:13;12.70;99.90
46231;DHT22;31949;51.404;-0.038;2023-04-19T09:37:41;12.60;99.90
46231;DHT22;31949;51.404;-0.038;2023-04-19T09:40:24;12.60;99.90
46231;DHT22;31949;51.404;-0.038;2023-04-19T09:42:53;12.60;99.90
46231;DHT22;31949;51.404;-0.038;2023-04-19T09:45:42;12.70;99.90
46231;DHT22;31949;51.404;-0.038;2023-04-19T09:48:10;12.80;99.90
46231;DHT22;31949;51.404;-0.038;2023-04-19T09:50:59;12.90;99.90
46231;DHT22;31949;51.404;-0.038;2023-04-19T09:53:32;12.90;99.90
46231;DHT22;31949;51.404;-0.038;2023-04-19T09:56:02;13.00;99.90
46231;DHT22;31949;51.404;-0.038;2023-04-19T09:58:31;13.00;99.90
46231;DHT22;31949;51.404;-0.038;2023-04-19T10:01:01;13.10;99.90
46231;DHT22;31949;51.404;-0.038;2023-04-19T10:03:43;13.10;99.90
46231;DHT22;31949;51.404;-0.038;2023-04-19T10:06:15;13.20;99.90
46231;DHT22;31949;51.404;-0.038;2023-04-19T10:09:03;13.20;99.90
46231;DHT22;31949;51.404;-0.038;2023-04-19T10:11:32;13.30;99.90
46231;DHT22;31949;51.404;-0.038;2023-04-19T10:14:07;13.30;99.90
46231;DHT22;31949;51.404;-0.038;2023-04-19T10:16:36;13.40;99.90
46231;DHT22;31949;51.404;-0.038;2023-04-19T10:19:08;13.50;99.90
46231;DHT22;31949;51.404;-0.038;2023-04-19T10:21:37;13.60;99.90
46231;DHT22;31949;51.404;-0.038;2023-04-19T10:24:05;13.60;99.90
46231;DHT22;31949;51.404;-0.038;2023-04-19T10:32:17;13.80;99.90
46231;DHT22;31949;51.404;-0.038;2023-04-19T10:34:45;13.90;99.90
46231;DHT22;31949;51.404;-0.038;2023-04-19T10:37:13;14.00;99.90
46231;DHT22;31949;51.404;-0.038;2023-04-19T10:39:44;14.00;99.90
46231;DHT22;31949;51.404;-0.038;2023-04-19T10:42:11;14.10;99.90
46231;DHT22;31949;51.404;-0.038;2023-04-19T10:44:39;14.20;99.90
46231;DHT22;31949;51.404;-0.038;2023-04-19T10:47:07;14.20;99.90
46231;DHT22;31949;51.404;-0.038;2023-04-19T10:49:45;14.30;99.90
46231;DHT22;31949;51.404;-0.038;2023-04-19T10:52:26;14.30;99.90
46231;DHT22;31949;51.404;-0.038;2023-04-19T10:54:55;14.40;99.90
46231;DHT22;31949;51.404;-0.038;2023-04-19T10:57:23;14.40;99.90
46231;DHT22;31949;51.404;-0.038;2023-04-19T11:00:17;14.40;99.90
46231;DHT22;31949;51.404;-0.038;2023-04-19T11:02:44;14.40;99.90
46231;DHT22;31949;51.404;-0.038;2023-04-19T11:05:12;14.60;99.90
46231;DHT22;31949;51.404;-0.038;2023-04-19T11:07:41;14.50;99.90
46231;DHT22;31949;51.404;-0.038;2023-04-19T11:10:09;14.50;99.90
46231;DHT22;31949;51.404;-0.038;2023-04-19T11:12:36;14.40;99.90
46231;DHT22;31949;51.404;-0.038;2023-04-19T11:15:07;14.30;99.90
46231;DHT22;31949;51.404;-0.038;2023-04-19T11:17:35;14.40;99.90
46231;DHT22;31949;51.404;-0.038;2023-04-19T11:20:06;14.30;99.90
46231;DHT22;31949;51.404;-0.038;2023-04-19T11:25:14;14.20;99.90
46231;DHT22;31949;51.404;-0.038;2023-04-19T11:27:44;14.30;99.90
46231;DHT22;31949;51.404;-0.038;2023-04-19T11:30:14;14.30;99.90
46231;DHT22;31949;51.404;-0.038;2023-04-19T11:32:46;14.40;99.90
46231;DHT22;31949;51.404;-0.038;2023-04-19T11:35:17;14.40;99.90
46231;DHT22;31949;51.404;-0.038;2023-04-19T11:37:45;14.40;99.90
46231;DHT22;31949;51.404;-0.038;2023-04-19T11:40:22;14.50;99.90
46231;DHT22;31949;51.404;-0.038;2023-04-19T11:42:59;14.50;99.90
46231;DHT22;31949;51.404;-0.038;2023-04-19T11:45:29;14.60;99.90
46231;DHT22;31949;51.404;-0.038;2023-04-19T11:48:13;14.60;99.90
46231;DHT22;31949;51.404;-0.038;2023-04-19T11:50:44;14.70;99.90
46231;DHT22;31949;51.404;-0.038;2023-04-19T11:53:16;14.80;99.90
46231;DHT22;31949;51.404;-0.038;2023-04-19T11:55:55;14.80;99.90
46231;DHT22;31949;51.404;-0.038;2023-04-19T11:58:25;14.80;99.90
46231;DHT22;31949;51.404;-0.038;2023-04-19T12:00:56;14.80;99.90
46231;DHT22;31949;51.404;-0.038;2023-04-19T12:03:24;14.90;99.90
46231;DHT22;31949;51.404;-0.038;2023-04-19T12:05:56;15.00;99.90
46231;DHT22;31949;51.404;-0.038;2023-04-19T12:08:35;15.00;99.90
46231;DHT22;31949;51.404;-0.038;2023-04-19T12:11:04;15.00;99.90
46231;DHT22;31949;51.404;-0.038;2023-04-19T12:13:35;15.20;99.90
46231;DHT22;31949;51.404;-0.038;2023-04-19T12:16:02;15.30;99.90
46231;DHT22;31949;51.404;-0.038;2023-04-19T12:18:50;15.30;99.90
46231;DHT22;31949;51.404;-0.038;2023-04-19T12:21:30;15.30;99.90
46231;DHT22;31949;51.404;-0.038;2023-04-19T12:24:00;15.30;99.90
46231;DHT22;31949;51.404;-0.038;2023-04-19T12:26:28;15.30;99.90
46231;DHT22;31949;51.404;-0.038;2023-04-19T12:28:57;15.30;99.90
46231;DHT22;31949;51.404;-0.038;2023-04-19T12:31:25;15.10;99.90
46231;DHT22;31949;51.404;-0.038;2023-04-19T12:33:53;15.10;99.90
46231;DHT22;31949;51.404;-0.038;2023-04-19T12:36:20;15.10;99.90
46231;DHT22;31949;51.404;-0.038;2023-04-19T12:38:48;15.10;99.90
46231;DHT22;31949;51.404;-0.038;2023-04-19T12:41:17;15.10;99.90
46231;DHT22;31949;51.404;-0.038;2023-04-19T12:43:44;15.10;99.90
46231;DHT22;31949;51.404;-0.038;2023-04-19T12:46:11;15.10;99.90
46231;DHT22;31949;51.404;-0.038;2023-04-19T12:48:38;15.10;99.90
46231;DHT22;31949;51.404;-0.038;2023-04-19T12:51:05;15.20;99.90
46231;DHT22;31949;51.404;-0.038;2023-04-19T12:53:33;15.40;99.90
46231;DHT22;31949;51.404;-0.038;2023-04-19T12:56:00;15.40;99.90
46231;DHT22;31949;51.404;-0.038;2023-04-19T12:58:27;15.40;99.90
46231;DHT22;31949;51.404;-0.038;2023-04-19T13:00:54;15.50;99.90
46231;DHT22;31949;51.404;-0.038;2023-04-19T13:03:22;15.50;99.90
46231;DHT22;31949;51.404;-0.038;2023-04-19T13:05:49;15.40;99.90
46231;DHT22;31949;51.404;-0.038;2023-04-19T13:08:17;15.50;99.90
46231;DHT22;31949;51.404;-0.038;2023-04-19T13:11:03;15.60;99.90
46231;DHT22;31949;51.404;-0.038;2023-04-19T13:13:30;15.50;99.90
46231;DHT22;31949;51.404;-0.038;2023-04-19T13:15:57;15.50;99.90
46231;DHT22;31949;51.404;-0.038;2023-04-19T13:18:25;15.70;99.90
46231;DHT22;31949;51.404;-0.038;2023-04-19T13:20:52;15.70;99.90
46231;DHT22;31949;51.404;-0.038;2023-04-19T13:23:19;15.90;99.90
46231;DHT22;31949;51.404;-0.038;2023-04-19T13:25:47;16.10;99.90
46231;DHT22;31949;51.404;-0.038;2023-04-19T13:28:14;16.10;99.90
46231;DHT22;31949;51.404;-0.038;2023-04-19T13:30:41;16.10;99.90
46231;DHT22;31949;51.404;-0.038;2023-04-19T13:33:08;16.10;99.90
46231;DHT22;31949;51.404;-0.038;2023-04-19T13:35:36;16.20;99.90
46231;DHT22;31949;51.404;-0.038;2023-04-19T13:38:03;16.30;99.90
46231;DHT22;31949;51.404;-0.038;2023-04-19T13:40:30;16.30;99.90
46231;DHT22;31949;51.404;-0.038;2023-04-19T13:42:57;16.30;99.90
46231;DHT22;31949;51.404;-0.038;2023-04-19T13:45:24;16.50;99.90
46231;DHT22;31949;51.404;-0.038;2023-04-19T13:47:52;16.50;99.90
46231;DHT22;31949;51.404;-0.038;2023-04-19T13:50:20;16.40;99.90
46231;DHT22;31949;51.404;-0.038;2023-04-19T13:52:47;16.40;99.90
46231;DHT22;31949;51.404;-0.038;2023-04-19T13:55:14;16.40;99.90
46231;DHT22;31949;51.404;-0.038;2023-04-19T13:57:42;16.40;99.90
46231;DHT22;31949;51.404;-0.038;2023-04-19T14:00:09;16.50;99.90
46231;DHT22;31949;51.404;-0.038;2023-04-19T14:02:37;16.40;99.90
46231;DHT22;31949;51.404;-0.038;2023-04-19T14:05:05;16.50;99.90
46231;DHT22;31949;51.404;-0.038;2023-04-19T14:07:32;16.50;99.90
46231;DHT22;31949;51.404;-0.038;2023-04-19T14:10:00;16.40;99.90
46231;DHT22;31949;51.404;-0.038;2023-04-19T14:12:28;16.40;99.90
46231;DHT22;31949;51.404;-0.038;2023-04-19T14:14:55;16.40;99.90
46231;DHT22;31949;51.404;-0.038;2023-04-19T14:17:22;16.30;99.90
46231;DHT22;31949;51.404;-0.038;2023-04-19T14:19:49;16.20;99.90
46231;DHT22;31949;51.404;-0.038;2023-04-19T14:22:16;16.10;99.90
46231;DHT22;31949;51.404;-0.038;2023-04-19T14:24:44;16.20;99.90
46231;DHT22;31949;51.404;-0.038;2023-04-19T14:27:12;16.20;99.90
46231;DHT22;31949;51.404;-0.038;2023-04-19T14:29:39;16.10;99.90
46231;DHT22;31949;51.404;-0.038;2023-04-19T14:32:07;16.00;99.90
46231;DHT22;31949;51.404;-0.038;2023-04-19T14:34:53;16.00;99.90
46231;DHT22;31949;51.404;-0.038;2023-04-19T14:37:21;15.90;99.90
46231;DHT22;31949;51.404;-0.038;2023-04-19T14:39:49;15.90;99.90
46231;DHT22;31949;51.404;-0.038;2023-04-19T14:42:17;15.70;99.90
46231;DHT22;31949;51.404;-0.038;2023-04-19T14:44:50;15.70;99.90
46231;DHT22;31949;51.404;-0.038;2023-04-19T14:47:17;15.60;99.90
46231;DHT22;31949;51.404;-0.038;2023-04-19T14:49:45;15.60;99.90
46231;DHT22;31949;51.404;-0.038;2023-04-19T14:52:12;15.50;99.90
46231;DHT22;31949;51.404;-0.038;2023-04-19T14:54:40;15.50;99.90
46231;DHT22;31949;51.404;-0.038;2023-04-19T14:57:07;15.30;99.90
46231;DHT22;31949;51.404;-0.038;2023-04-19T14:59:35;15.30;99.90
46231;DHT22;31949;51.404;-0.038;2023-04-19T15:02:02;15.20;99.90
46231;DHT22;31949;51.404;-0.038;2023-04-19T15:04:33;15.10;99.90
46231;DHT22;31949;51.404;-0.038;2023-04-19T15:07:04;15.10;99.90
46231;DHT22;31949;51.404;-0.038;2023-04-19T15:09:32;15.10;99.90
46231;DHT22;31949;51.404;-0.038;2023-04-19T15:11:59;15.10;99.90
46231;DHT22;31949;51.404;-0.038;2023-04-19T15:14:27;15.10;99.90
46231;DHT22;31949;51.404;-0.038;2023-04-19T15:16:54;15.00;99.90
46231;DHT22;31949;51.404;-0.038;2023-04-19T15:19:21;15.00;99.90
46231;DHT22;31949;51.404;-0.038;2023-04-19T15:21:49;14.90;99.90
46231;DHT22;31949;51.404;-0.038;2023-04-19T15:24:16;14.90;99.90
46231;DHT22;31949;51.404;-0.038;2023-04-19T15:26:43;14.90;99.90
46231;DHT22;31949;51.404;-0.038;2023-04-19T15:29:10;15.00;99.90
46231;DHT22;31949;51.404;-0.038;2023-04-19T15:31:38;14.90;99.90
46231;DHT22;31949;51.404;-0.038;2023-04-19T15:34:05;14.90;99.90
46231;DHT22;31949;51.404;-0.038;2023-04-19T15:36:32;14.80;99.90
46231;DHT22;31949;51.404;-0.038;2023-04-19T15:39:00;14.80;99.90
46231;DHT22;31949;51.404;-0.038;2023-04-19T15:41:27;14.80;99.90
46231;DHT22;31949;51.404;-0.038;2023-04-19T15:43:56;14.80;99.90
46231;DHT22;31949;51.404;-0.038;2023-04-19T15:46:23;14.80;99.90